Time;durP1;ratioP1;P1;durP2;ratioP2;P2;SDS_P1;SDS_P2;PMS_P1;PMS_P2;Temp;Humidity;BMP_temperature;BMP_pressure;BME280_temperature;BME280_humidity;BME280_pressure;Samples;Min_cycle;Max_cycle;Signal;HPM_P1;HPM_P2
2020/12/03 00:01:17;;;;;;;91.72;46.30;;;;;;;-4.16;82.85;99034.58;2172671;81;21286;-80
2020/12/03 00:04:20;;;;;;;93.30;45.98;;;;;;;-4.10;82.81;99037.29;2175303;81;21294;-80
2020/12/03 00:07:23;;;;;;;87.82;42.50;;;;;;;-4.04;82.77;99041.61;2160884;81;21538;-80
2020/12/03 00:10:43;;;;;;;68.75;33.28;;;;;;;-4.01;82.88;99033.80;2159786;81;21085;-80
2020/12/03 00:13:44;;;;;;;72.53;35.50;;;;;;;-3.97;83.32;99034.45;2175647;80;21299;-80
2020/12/03 00:16:45;;;;;;;68.47;34.58;;;;;;;-3.96;83.50;99032.27;2182161;81;22160;-81
2020/12/03 00:19:47;;;;;;;74.47;34.18;;;;;;;-3.92;83.84;99035.05;2175168;81;21120;-81
2020/12/03 00:22:48;;;;;;;69.17;36.25;;;;;;;-3.95;83.79;99026.23;2175222;81;21275;-80
2020/12/03 00:25:49;;;;;;;66.25;34.95;;;;;;;-3.92;83.77;99023.98;2182111;81;21268;-81
2020/12/03 00:28:50;;;;;;;78.22;37.17;;;;;;;-3.86;83.92;99023.64;2167044;81;21275;-81
2020/12/03 00:31:51;;;;;;;66.37;32.30;;;;;;;-3.79;84.04;99024.52;2179350;81;21096;-81
2020/12/03 00:34:52;;;;;;;71.40;35.17;;;;;;;-3.72;83.92;99016.89;2175039;81;21279;-80
2020/12/03 00:37:54;;;;;;;64.45;31.65;;;;;;;-3.69;83.68;99010.77;2175048;81;21283;-80
2020/12/03 00:40:55;;;;;;;66.90;32.45;;;;;;;-3.70;83.73;99004.47;2136523;82;21665;-80
2020/12/03 00:43:56;;;;;;;76.40;40.90;;;;;;;-3.68;83.76;99012.88;2152463;82;21691;-81
2020/12/03 00:46:58;;;;;;;84.47;41.13;;;;;;;-3.65;83.70;99009.72;2142021;82;21228;-81
2020/12/03 00:49:59;;;;;;;78.90;39.42;;;;;;;-3.56;83.74;99002.81;2157035;82;21577;-81
2020/12/03 00:53:00;;;;;;;75.72;36.48;;;;;;;-3.50;83.57;98995.23;2143561;81;21287;-80
2020/12/03 00:56:02;;;;;;;72.45;36.98;;;;;;;-3.48;83.56;98987.01;2142921;82;21296;-80
2020/12/03 00:59:03;;;;;;;80.38;38.48;;;;;;;-3.53;83.44;98970.64;2160977;81;21553;-81
2020/12/03 01:02:05;;;;;;;75.45;37.70;;;;;;;-3.49;83.53;98972.56;2140190;82;21752;-81
2020/12/03 01:05:06;;;;;;;73.90;37.78;;;;;;;-3.54;83.55;98971.55;2153106;82;21552;-81
2020/12/03 01:08:07;;;;;;;72.92;38.05;;;;;;;-3.55;83.59;98965.24;2155832;82;21184;-81
2020/12/03 01:11:08;;;;;;;81.40;39.25;;;;;;;-3.51;83.63;98957.75;2143718;82;21694;-81
2020/12/03 01:14:09;;;;;;;67.62;31.62;;;;;;;-3.43;83.60;98950.47;2158061;82;21120;-81
2020/12/03 01:17:11;;;;;;;63.00;30.40;;;;;;;-3.52;83.46;98935.16;2157095;82;21120;-81
2020/12/03 01:20:13;;;;;;;76.40;36.03;;;;;;;-3.59;83.81;98924.89;2149336;82;21136;-81
2020/12/03 01:23:14;;;;;;;58.30;29.87;;;;;;;-3.66;83.95;98918.45;2145183;82;21296;-81
2020/12/03 01:26:15;;;;;;;72.65;36.20;;;;;;;-3.69;84.20;98909.68;2154355;82;21169;-80
2020/12/03 01:29:16;;;;;;;72.32;34.90;;;;;;;-3.72;83.92;98901.73;2138201;82;21275;-80
2020/12/03 01:32:17;;;;;;;67.03;32.67;;;;;;;-3.72;84.08;98893.22;2142258;82;21129;-80
2020/12/03 01:35:18;;;;;;;76.57;36.23;;;;;;;-3.75;84.09;98876.74;2135798;82;21318;-80
2020/12/03 01:38:20;;;;;;;67.72;34.92;;;;;;;-3.80;84.36;98874.45;2132151;82;21272;-80
2020/12/03 01:41:21;;;;;;;50.70;26.93;;;;;;;-3.90;84.42;98861.81;2116621;82;21556;-79
2020/12/03 01:44:22;;;;;;;65.42;33.83;;;;;;;-3.96;84.69;98869.81;2122507;82;21177;-80
2020/12/03 01:47:23;;;;;;;59.48;30.77;;;;;;;-3.94;84.71;98874.38;2156617;82;21274;-80
2020/12/03 01:50:25;;;;;;;71.15;35.38;;;;;;;-3.93;84.63;98865.83;2123651;82;21706;-80
2020/12/03 01:53:26;;;;;;;58.23;28.65;;;;;;;-3.88;84.58;98860.44;2116685;82;21135;-81
2020/12/03 01:56:28;;;;;;;66.90;35.00;;;;;;;-3.90;84.78;98853.31;2118713;82;21269;-80
2020/12/03 01:59:29;;;;;;;62.43;29.50;;;;;;;-3.99;85.17;98837.19;2144777;82;21264;-80
2020/12/03 02:02:30;;;;;;;56.55;27.93;;;;;;;-4.01;84.89;98836.83;2142140;82;21138;-80
2020/12/03 02:05:31;;;;;;;55.38;26.20;;;;;;;-4.11;85.22;98810.58;2142061;82;21275;-80
2020/12/03 02:08:33;;;;;;;54.98;28.32;;;;;;;-4.25;85.41;98819.45;2118461;82;21656;-81
2020/12/03 02:11:35;;;;;;;44.42;23.85;;;;;;;-4.36;85.89;98810.63;2138520;82;21303;-80
2020/12/03 02:14:36;;;;;;;59.53;30.62;;;;;;;-4.36;86.06;98815.75;2113738;82;21590;-80
2020/12/03 02:17:37;;;;;;;68.22;34.95;;;;;;;-4.34;86.28;98821.59;2130229;82;21137;-80
2020/12/03 02:20:38;;;;;;;62.10;32.03;;;;;;;-4.25;85.45;98826.66;2151075;82;21284;-80
2020/12/03 02:23:39;;;;;;;64.15;31.50;;;;;;;-4.15;85.47;98828.26;2135150;82;21712;-80
2020/12/03 02:26:41;;;;;;;57.43;29.67;;;;;;;-4.07;85.36;98814.59;2132177;82;21265;-81
2020/12/03 02:29:42;;;;;;;59.58;32.00;;;;;;;-4.03;85.31;98814.78;2141532;82;21129;-80
2020/12/03 02:32:43;;;;;;;56.55;29.77;;;;;;;-4.05;85.27;98807.66;2121524;82;21281;-80
2020/12/03 02:35:45;;;;;;;66.77;32.63;;;;;;;-4.09;85.48;98822.36;2160426;82;21302;-80
2020/12/03 02:38:46;;;;;;;59.45;29.23;;;;;;;-4.05;85.24;98820.44;2121620;82;21132;-81
2020/12/03 02:41:47;;;;;;;66.35;32.73;;;;;;;-3.99;85.05;98815.45;2128324;82;21139;-80
2020/12/03 02:44:49;;;;;;;70.05;36.38;;;;;;;-4.02;84.91;98813.89;2127633;82;21683;-80
2020/12/03 02:47:50;;;;;;;58.20;31.40;;;;;;;-3.98;85.06;98804.30;2142398;83;21251;-79
2020/12/03 02:50:51;;;;;;;54.50;28.83;;;;;;;-3.99;84.77;98792.43;2142142;82;21255;-80
2020/12/03 02:53:52;;;;;;;66.72;34.33;;;;;;;-4.04;84.73;98806.73;2137821;82;21276;-80
2020/12/03 02:56:53;;;;;;;62.53;31.33;;;;;;;-4.04;84.85;98807.56;2143747;82;21122;-80
2020/12/03 02:59:55;;;;;;;69.40;35.35;;;;;;;-3.97;84.80;98805.49;2142893;82;21268;-80
2020/12/03 03:02:56;;;;;;;57.73;30.95;;;;;;;-3.93;84.72;98808.27;2149663;82;21279;-81
2020/12/03 03:05:57;;;;;;;65.55;33.73;;;;;;;-3.85;84.61;98811.19;2145301;82;21688;-81
2020/12/03 03:08:58;;;;;;;68.75;34.88;;;;;;;-3.79;84.41;98818.53;2137687;82;21157;-81
2020/12/03 03:12:00;;;;;;;57.65;30.08;;;;;;;-3.74;84.35;98819.56;2152799;82;21695;-81
2020/12/03 03:15:03;;;;;;;68.35;36.17;;;;;;;-3.67;84.28;98819.55;2131818;83;21099;-81
2020/12/03 03:18:04;;;;;;;70.52;36.65;;;;;;;-3.62;84.24;98825.25;2148333;82;21364;-81
2020/12/03 03:21:05;;;;;;;60.98;33.20;;;;;;;-3.57;84.04;98824.51;2152449;82;21129;-81
2020/12/03 03:24:07;;;;;;;58.13;29.07;;;;;;;-3.51;84.16;98817.77;2133693;82;21267;-81
2020/12/03 03:27:08;;;;;;;59.85;29.63;;;;;;;-3.45;83.69;98810.20;2113383;82;21143;-80
2020/12/03 03:30:09;;;;;;;61.63;31.45;;;;;;;-3.46;83.35;98800.88;2137416;82;21119;-80
2020/12/03 03:33:10;;;;;;;61.92;34.13;;;;;;;-3.50;83.22;98810.91;2136566;82;21260;-80
2020/12/03 03:36:12;;;;;;;61.80;31.17;;;;;;;-3.54;83.35;98810.73;2144600;82;21118;-80
2020/12/03 03:39:13;;;;;;;57.53;28.77;;;;;;;-3.57;83.19;98809.15;2160060;81;21743;-80
2020/12/03 03:42:14;;;;;;;49.63;23.95;;;;;;;-3.65;82.96;98788.32;2131416;82;21336;-80
2020/12/03 03:45:15;;;;;;;49.98;26.55;;;;;;;-3.87;82.95;98784.05;2136376;82;21580;-80
2020/12/03 03:48:17;;;;;;;61.40;31.57;;;;;;;-3.91;83.32;98785.97;2140219;82;21104;-80
2020/12/03 03:51:18;;;;;;;58.48;29.37;;;;;;;-3.95;83.48;98797.73;2151188;82;21136;-81
2020/12/03 03:54:19;;;;;;;60.75;30.43;;;;;;;-3.94;83.59;98784.84;2153534;82;21268;-80
2020/12/03 03:57:21;;;;;;;72.40;34.23;;;;;;;-3.93;83.64;98775.44;2142797;82;21116;-81
2020/12/03 04:00:22;;;;;;;49.42;23.42;;;;;;;-3.86;83.69;98774.18;2133315;82;21172;-81
2020/12/03 04:03:23;;;;;;;68.22;33.33;;;;;;;-3.85;83.42;98768.97;2125571;82;21150;-81
2020/12/03 04:06:24;;;;;;;64.92;32.63;;;;;;;-3.87;83.46;98772.08;2152499;82;21161;-81
2020/12/03 04:09:25;;;;;;;62.85;33.35;;;;;;;-3.83;83.50;98770.19;2121400;83;21251;-80
2020/12/03 04:12:26;;;;;;;61.40;31.60;;;;;;;-3.79;83.43;98775.03;2142478;82;21271;-80
2020/12/03 04:15:28;;;;;;;66.17;32.08;;;;;;;-3.79;83.34;98777.58;2135704;82;21359;-80
2020/12/03 04:18:29;;;;;;;56.37;28.32;;;;;;;-3.77;83.37;98776.21;2123252;82;21259;-81
2020/12/03 04:21:31;;;;;;;64.55;33.80;;;;;;;-3.77;83.08;98783.43;2148675;82;21258;-80
2020/12/03 04:24:32;;;;;;;65.87;30.80;;;;;;;-3.84;83.10;98780.87;2159661;82;21251;-81
2020/12/03 04:27:33;;;;;;;62.90;32.88;;;;;;;-3.82;83.20;98795.68;2148123;82;21280;-80
2020/12/03 04:30:34;;;;;;;62.50;31.85;;;;;;;-3.82;83.08;98798.23;2133725;82;21181;-80
2020/12/03 04:33:35;;;;;;;62.20;32.58;;;;;;;-3.81;83.03;98805.00;2142105;82;21118;-80
2020/12/03 04:36:37;;;;;;;59.55;30.95;;;;;;;-3.80;83.07;98818.62;2142240;82;21706;-81
2020/12/03 04:39:38;;;;;;;57.38;31.85;;;;;;;-3.76;83.08;98803.45;2157168;81;21126;-80
2020/12/03 04:42:40;;;;;;;56.23;30.08;;;;;;;-3.72;83.07;98799.36;2142312;82;21279;-81
2020/12/03 04:45:42;;;;;;;65.30;33.25;;;;;;;-3.70;83.13;98797.98;2152439;82;21152;-79
2020/12/03 04:48:43;;;;;;;53.58;27.40;;;;;;;-3.63;83.08;98783.94;2145820;82;21303;-80
2020/12/03 04:51:44;;;;;;;64.30;33.28;;;;;;;-3.61;82.83;98775.70;2132150;82;21803;-81
2020/12/03 04:54:46;;;;;;;56.58;29.67;;;;;;;-3.59;82.79;98762.80;2142320;82;21165;-81
2020/12/03 04:57:47;;;;;;;56.90;29.25;;;;;;;-3.59;82.27;98757.23;2138971;82;21135;-79
2020/12/03 05:00:48;;;;;;;63.75;33.98;;;;;;;-3.64;82.40;98748.19;2145413;82;21272;-80
2020/12/03 05:03:49;;;;;;;61.60;33.45;;;;;;;-3.69;82.21;98739.48;2116439;82;21257;-80
2020/12/03 05:06:51;;;;;;;56.68;28.62;;;;;;;-3.70;82.44;98727.61;2111538;82;21743;-80
2020/12/03 05:09:52;;;;;;;61.05;30.23;;;;;;;-3.80;81.47;98727.33;2105562;82;21147;-80
2020/12/03 05:12:53;;;;;;;67.70;34.58;;;;;;;-4.03;81.83;98732.47;2143651;82;21247;-80
2020/12/03 05:15:54;;;;;;;61.90;33.42;;;;;;;-4.16;82.10;98722.58;2125812;82;21137;-81
2020/12/03 05:18:55;;;;;;;55.28;27.55;;;;;;;-4.20;82.49;98712.17;2137254;82;21124;-80
2020/12/03 05:21:57;;;;;;;64.17;31.45;;;;;;;-4.30;82.35;98711.02;2114755;82;21336;-80
2020/12/03 05:24:58;;;;;;;50.52;25.57;;;;;;;-4.37;82.60;98704.63;2124725;82;21144;-80
2020/12/03 05:27:59;;;;;;;61.13;32.05;;;;;;;-4.49;82.65;98700.19;2145875;82;21156;-79
2020/12/03 05:31:00;;;;;;;58.10;28.67;;;;;;;-4.60;82.79;98700.33;2127152;82;21685;-80
2020/12/03 05:34:05;;;;;;;64.87;30.10;;;;;;;-4.65;82.82;98702.34;2139469;82;21274;-79
2020/12/03 05:37:04;;;;;;;70.05;31.05;;;;;;;-4.67;82.93;98710.52;2131523;83;21650;-79
2020/12/03 05:40:06;;;;;;;61.15;32.45;;;;;;;-4.74;82.84;98713.06;2152446;82;21165;-79
2020/12/03 05:43:07;;;;;;;48.60;26.45;;;;;;;-4.76;83.04;98709.74;2123033;82;21147;-79
2020/12/03 05:46:08;;;;;;;62.58;31.33;;;;;;;-4.79;83.10;98693.31;2113277;82;21159;-79
2020/12/03 05:49:09;;;;;;;50.35;28.32;;;;;;;-4.88;82.94;98683.59;2116111;82;21266;-79
2020/12/03 05:52:11;;;;;;;59.77;30.85;;;;;;;-4.99;83.27;98684.19;2117261;82;21102;-80
2020/12/03 05:55:12;;;;;;;62.90;31.85;;;;;;;-5.01;83.37;98687.28;2142147;82;21339;-80
2020/12/03 05:58:13;;;;;;;55.10;29.45;;;;;;;-5.04;83.46;98687.42;2149927;82;21156;-79
2020/12/03 06:01:15;;;;;;;57.13;28.90;;;;;;;-5.06;83.53;98675.66;2128028;82;21166;-80
2020/12/03 06:04:16;;;;;;;55.45;29.05;;;;;;;-5.16;83.45;98679.16;2107804;82;21123;-81
2020/12/03 06:07:17;;;;;;;49.63;26.05;;;;;;;-5.14;83.59;98678.62;2131693;82;21283;-79
2020/12/03 06:10:18;;;;;;;66.67;32.70;;;;;;;-5.23;83.61;98668.44;2146129;82;21239;-82
2020/12/03 06:13:21;;;;;;;47.65;22.80;;;;;;;-5.27;83.83;98659.31;2127805;82;21163;-80
2020/12/03 06:16:22;;;;;;;60.95;28.87;;;;;;;-5.29;83.98;98658.58;2124061;82;21258;-82
2020/12/03 06:19:24;;;;;;;57.15;29.00;;;;;;;-5.29;84.02;98656.03;2121464;82;21727;-83
2020/12/03 06:22:25;;;;;;;55.50;26.52;;;;;;;-5.31;84.23;98642.95;2160575;82;21743;-82
2020/12/03 06:25:27;;;;;;;52.03;27.17;;;;;;;-5.36;84.13;98639.39;2145814;82;21258;-82
2020/12/03 06:28:30;;;;;;;59.98;28.55;;;;;;;-5.40;84.25;98640.89;2127189;82;21263;-82
2020/12/03 06:31:32;;;;;;;50.45;26.80;;;;;;;-5.40;84.30;98635.33;2144728;82;21135;-83
2020/12/03 06:34:36;;;;;;;43.75;19.82;;;;;;;-5.38;84.17;98627.63;2146786;82;21127;-86
2020/12/03 06:37:37;;;;;;;52.98;26.60;;;;;;;-5.35;84.22;98627.45;2139983;82;21168;-90
2020/12/03 06:40:46;;;;;;;53.92;29.05;;;;;;;-5.34;83.95;98629.09;2142316;82;21120;-86
2020/12/03 06:43:50;;;;;;;52.83;26.55;;;;;;;-5.32;84.07;98619.16;2149797;82;21135;-79
2020/12/03 06:46:55;;;;;;;55.17;27.35;;;;;;;-5.26;83.94;98614.19;2148288;82;21123;-82
2020/12/03 06:49:57;;;;;;;45.78;22.65;;;;;;;-5.23;83.85;98620.39;2142209;82;21709;-79
2020/12/03 06:52:58;;;;;;;46.42;23.57;;;;;;;-5.19;83.73;98621.89;2146034;82;21273;-82
2020/12/03 06:56:02;;;;;;;44.85;23.77;;;;;;;-5.16;83.75;98617.89;2142453;82;21994;-82
2020/12/03 06:59:14;;;;;;;52.23;28.87;;;;;;;-5.19;83.89;98615.51;2148865;82;21297;-80
2020/12/03 07:02:21;;;;;;;48.68;25.55;;;;;;;-5.17;83.96;98627.73;2145525;82;21104;-80
2020/12/03 07:05:26;;;;;;;37.88;21.50;;;;;;;-5.16;83.92;98621.72;2147024;82;21551;-88
2020/12/03 07:08:34;;;;;;;56.25;25.48;;;;;;;-5.13;83.99;98615.61;2146691;82;21076;-86
2020/12/03 07:11:51;;;;;;;50.23;23.77;;;;;;;-5.15;83.94;98618.25;2149367;82;21275;-85
2020/12/03 07:14:54;;;;;;;43.13;20.60;;;;;;;-5.11;84.08;98613.36;2141970;82;21096;-85
2020/12/03 07:17:57;;;;;;;53.55;26.00;;;;;;;-5.09;83.98;98621.76;2146888;82;21242;-85
2020/12/03 07:20:58;;;;;;;51.55;27.87;;;;;;;-5.02;83.92;98623.53;2146699;82;21112;-83
2020/12/03 07:24:00;;;;;;;57.08;29.15;;;;;;;-4.98;83.82;98610.95;2147173;82;21231;-84
2020/12/03 07:27:05;;;;;;;45.12;24.90;;;;;;;-4.91;83.73;98622.48;2147626;82;21297;-81
2020/12/03 07:30:12;;;;;;;51.83;27.70;;;;;;;-4.79;83.55;98613.30;2145348;82;21151;-84
2020/12/03 07:33:13;;;;;;;51.85;27.62;;;;;;;-4.72;83.43;98612.88;2144547;82;21263;-86
2020/12/03 07:36:14;;;;;;;54.80;28.25;;;;;;;-4.66;83.36;98606.61;2143059;82;21171;-81
2020/12/03 07:39:15;;;;;;;56.25;30.20;;;;;;;-4.60;83.30;98623.67;2151234;82;21242;-84
2020/12/03 07:42:17;;;;;;;47.88;26.27;;;;;;;-4.50;83.35;98626.52;2145895;82;21282;-83
2020/12/03 07:45:18;;;;;;;54.15;29.57;;;;;;;-4.36;83.25;98627.03;2162170;82;21229;-83
2020/12/03 07:48:26;;;;;;;56.92;28.55;;;;;;;-4.24;83.01;98635.72;2154977;81;21747;-84
2020/12/03 07:51:28;;;;;;;46.77;23.47;;;;;;;-4.11;83.04;98623.42;2149394;82;21570;-82
2020/12/03 07:54:32;;;;;;;53.00;28.98;;;;;;;-3.97;82.51;98621.77;2150859;82;21286;-81
2020/12/03 07:57:33;;;;;;;52.80;28.07;;;;;;;-3.88;82.48;98618.67;2159406;82;21326;-82
2020/12/03 08:00:35;;;;;;;50.58;28.75;;;;;;;-3.75;82.53;98611.89;2143509;82;21754;-85
2020/12/03 08:03:37;;;;;;;50.50;24.47;;;;;;;-3.73;81.82;98613.47;2162540;82;21139;-82
2020/12/03 08:06:42;;;;;;;54.70;26.97;;;;;;;-3.73;81.67;98601.13;2158758;82;21143;-82
2020/12/03 08:09:56;;;;;;;50.85;27.98;;;;;;;-3.69;81.49;98592.80;2156787;82;21159;-82
2020/12/03 08:13:04;;;;;;;55.25;29.10;;;;;;;-3.80;81.60;98581.94;2157578;82;21576;-83
2020/12/03 08:16:13;;;;;;;49.25;25.15;;;;;;;-3.81;81.56;98596.47;2151162;82;21124;-83
2020/12/03 08:19:14;;;;;;;;;;;;;;;-3.79;81.91;98595.09;2148312;82;21297;-81
2020/12/03 08:22:17;;;;;;;46.42;25.80;;;;;;;-3.75;82.07;98586.30;2144460;82;20235;-82
2020/12/03 08:25:18;;;;;;;51.37;27.42;;;;;;;-3.69;82.09;98593.62;2154995;82;21301;-82
2020/12/03 08:28:21;;;;;;;44.65;24.07;;;;;;;-3.63;82.22;98594.99;2154841;81;21128;-83
2020/12/03 08:31:22;;;;;;;45.63;25.65;;;;;;;-3.55;82.28;98588.95;2159508;82;21261;-82
2020/12/03 08:34:24;;;;;;;50.03;27.45;;;;;;;-3.54;82.04;98585.01;2169680;82;21285;-82
2020/12/03 08:37:28;;;;;;;48.58;26.73;;;;;;;-3.47;82.37;98591.86;2160336;80;21175;-83
2020/12/03 08:40:30;;;;;;;54.00;27.45;;;;;;;-3.35;82.46;98590.27;2163592;80;21287;-84
2020/12/03 08:43:33;;;;;;;52.62;28.23;;;;;;;-3.26;82.39;98602.05;2152756;80;21277;-85
2020/12/03 08:46:35;;;;;;;52.08;29.27;;;;;;;-3.08;82.26;98602.64;2150001;82;21322;-78
2020/12/03 08:49:36;;;;;;;42.48;22.40;;;;;;;-2.95;82.16;98594.52;2160005;82;21734;-80
2020/12/03 08:52:38;;;;;;;49.45;26.45;;;;;;;-2.82;81.90;98601.45;2153015;82;21161;-84
2020/12/03 08:55:40;;;;;;;53.98;27.30;;;;;;;-2.77;81.75;98594.27;2144987;82;21276;-83
2020/12/03 08:58:41;;;;;;;44.08;24.67;;;;;;;-2.66;81.85;98602.08;2149153;82;21302;-83
2020/12/03 09:01:44;;;;;;;43.42;24.90;;;;;;;-2.61;80.88;98589.80;2140619;82;21301;-84
2020/12/03 09:04:48;;;;;;;48.15;25.08;;;;;;;-2.58;81.07;98579.33;2148636;82;21245;-82
2020/12/03 09:07:52;;;;;;;43.90;23.22;;;;;;;-2.51;81.66;98570.78;2167920;82;21273;-84
2020/12/03 09:11:03;;;;;;;48.85;24.47;;;;;;;-2.45;81.71;98575.06;2151638;82;21125;-83
2020/12/03 09:14:07;;;;;;;42.38;23.35;;;;;;;-2.41;81.27;98573.09;2156887;82;21125;-81
2020/12/03 09:17:09;;;;;;;53.85;26.90;;;;;;;-2.49;81.18;98576.16;2144799;82;21230;-82
2020/12/03 09:20:11;;;;;;;46.08;26.37;;;;;;;-2.39;82.16;98572.06;2151092;82;22095;-84
2020/12/03 09:23:12;;;;;;;47.15;25.00;;;;;;;-2.23;81.87;98571.88;2150068;82;21109;-79
2020/12/03 09:26:15;;;;;;;46.48;25.97;;;;;;;-2.14;81.71;98551.20;2149976;82;21136;-82
2020/12/03 09:29:16;;;;;;;48.25;25.20;;;;;;;-2.02;81.84;98545.23;2162345;82;21153;-81
2020/12/03 09:32:17;;;;;;;49.13;27.35;;;;;;;-1.89;81.58;98543.48;2170418;82;21146;-83
2020/12/03 09:35:19;;;;;;;41.90;23.02;;;;;;;-1.70;82.02;98549.45;2153464;82;21592;-85
2020/12/03 09:38:21;;;;;;;44.18;24.07;;;;;;;-1.53;81.46;98545.70;2159085;82;21114;-80
2020/12/03 09:41:22;;;;;;;39.20;22.65;;;;;;;-1.32;81.76;98552.36;2168639;81;21291;-80
2020/12/03 09:44:23;;;;;;;40.73;21.07;;;;;;;-1.17;80.73;98547.42;2148739;82;21139;-79
2020/12/03 09:47:27;;;;;;;38.65;22.73;;;;;;;-1.17;79.87;98532.82;2152727;82;21183;-82
2020/12/03 09:50:28;;;;;;;57.60;31.30;;;;;;;-1.11;79.91;98524.30;2177610;82;21111;-83
2020/12/03 09:53:31;;;;;;;40.15;21.90;;;;;;;-1.04;80.91;98525.50;2161130;81;21134;-86
2020/12/03 09:56:33;;;;;;;45.03;24.45;;;;;;;-0.93;80.60;98531.50;2156112;82;21167;-82
2020/12/03 09:59:35;;;;;;;47.30;25.55;;;;;;;-0.83;80.67;98524.40;2160289;82;21768;-84
2020/12/03 10:02:36;;;;;;;45.83;25.60;;;;;;;-0.74;80.49;98529.69;2150896;82;21120;-84
2020/12/03 10:05:37;;;;;;;38.30;21.15;;;;;;;-0.63;80.49;98518.16;2161067;82;21245;-81
2020/12/03 10:08:40;;;;;;;46.25;24.40;;;;;;;-0.53;79.97;98506.72;2161856;81;21698;-79
2020/12/03 10:11:41;;;;;;;42.13;23.27;;;;;;;-0.40;79.49;98498.42;2162228;82;21264;-80
2020/12/03 10:14:42;;;;;;;36.83;22.60;;;;;;;-0.28;79.66;98504.39;2167495;82;21115;-84
2020/12/03 10:17:44;;;;;;;40.10;24.30;;;;;;;-0.21;78.70;98494.45;2153968;81;21084;-83
2020/12/03 10:20:46;;;;;;;40.67;24.20;;;;;;;-0.18;79.39;98492.48;2140620;82;21273;-85
2020/12/03 10:23:47;;;;;;;45.58;26.20;;;;;;;-0.12;78.77;98488.13;2144290;82;21523;-79
2020/12/03 10:26:49;;;;;;;44.35;24.47;;;;;;;-0.05;79.31;98491.06;2161942;82;21119;-83
2020/12/03 10:29:50;;;;;;;45.45;26.48;;;;;;;0.02;78.58;98478.55;2150499;82;21322;-80
2020/12/03 10:32:52;;;;;;;41.05;24.07;;;;;;;0.07;78.64;98471.27;2152804;82;21084;-84
2020/12/03 10:35:54;;;;;;;42.93;24.77;;;;;;;0.05;78.28;98479.12;2155739;81;21156;-82
2020/12/03 10:38:56;;;;;;;39.05;23.18;;;;;;;0.09;78.17;98472.81;2162613;82;21591;-83
2020/12/03 10:41:57;;;;;;;43.68;24.65;;;;;;;0.08;78.29;98467.75;2145935;82;21163;-84
2020/12/03 10:44:59;;;;;;;41.65;23.52;;;;;;;0.02;78.08;98466.97;2140368;82;21149;-82
2020/12/03 10:48:01;;;;;;;44.83;24.67;;;;;;;0.01;78.35;98470.01;2145935;82;21313;-82
2020/12/03 10:51:02;;;;;;;45.38;23.65;;;;;;;0.05;78.77;98468.00;2127565;82;21127;-81
2020/12/03 10:54:03;;;;;;;45.20;25.05;;;;;;;0.06;78.90;98472.20;2112361;82;21143;-82
2020/12/03 10:57:05;;;;;;;43.08;24.47;;;;;;;0.05;78.05;98478.30;2105441;82;21131;-80
2020/12/03 11:00:08;;;;;;;45.17;25.92;;;;;;;0.06;78.78;98479.94;2126597;82;21124;-79
2020/12/03 11:03:10;;;;;;;39.88;24.77;;;;;;;0.13;79.05;98485.78;2124877;82;21281;-82
2020/12/03 11:06:11;;;;;;;43.08;23.98;;;;;;;0.21;78.87;98477.46;2118061;82;21126;-80
2020/12/03 11:09:13;;;;;;;50.00;27.22;;;;;;;0.29;78.81;98475.11;2145889;82;21116;-79
2020/12/03 11:12:14;;;;;;;42.13;23.27;;;;;;;0.37;78.70;98462.45;2148278;82;21113;-81
2020/12/03 11:15:16;;;;;;;46.85;24.70;;;;;;;0.44;78.45;98458.89;2132607;82;21120;-79
2020/12/03 11:18:17;;;;;;;47.55;26.93;;;;;;;0.42;77.87;98457.73;2141564;82;21724;-81
2020/12/03 11:21:19;;;;;;;45.20;26.25;;;;;;;0.46;78.13;98467.34;2131734;82;21265;-82
2020/12/03 11:24:20;;;;;;;45.58;25.45;;;;;;;0.52;77.95;98459.11;2139963;82;21122;-82
2020/12/03 11:27:21;;;;;;;50.67;27.27;;;;;;;0.61;78.27;98466.58;2141058;82;21276;-80
2020/12/03 11:30:23;;;;;;;42.17;24.63;;;;;;;0.71;77.95;98459.73;2108563;82;21147;-80
2020/12/03 11:33:25;;;;;;;40.75;24.45;;;;;;;0.86;77.62;98434.02;2138995;82;21296;-83
2020/12/03 11:36:26;;;;;;;38.23;23.95;;;;;;;0.80;75.91;98428.06;2143889;82;21310;-82
2020/12/03 11:39:28;;;;;;;40.73;24.52;;;;;;;0.74;76.92;98426.83;2114351;82;21127;-81
2020/12/03 11:42:37;;;;;;;46.13;25.82;;;;;;;0.76;77.00;98430.56;2127736;82;21309;-81
2020/12/03 11:48:59;;;;;;;43.92;24.25;;;;;;;0.72;76.36;98419.66;2146056;82;21699;-80
2020/12/03 11:52:00;;;;;;;43.38;25.50;;;;;;;0.69;76.81;98418.63;2152476;82;21251;-79
2020/12/03 11:55:02;;;;;;;49.25;26.85;;;;;;;0.65;76.35;98415.16;2152349;82;21243;-79
2020/12/03 11:58:03;;;;;;;46.45;26.48;;;;;;;0.68;77.11;98425.20;2133170;82;21147;-82
2020/12/03 12:01:05;;;;;;;44.27;26.07;;;;;;;0.77;76.32;98414.97;2107034;82;21659;-79
2020/12/03 12:04:11;;;;;;;40.60;23.77;;;;;;;0.81;76.69;98411.19;2144153;82;21280;-79
2020/12/03 12:07:17;;;;;;;42.15;25.68;;;;;;;0.87;76.74;98408.59;2120938;82;21151;-78
2020/12/03 12:10:20;;;;;;;47.48;26.02;;;;;;;0.94;76.89;98395.55;2149908;82;21116;-80
2020/12/03 12:13:23;;;;;;;47.40;25.32;;;;;;;0.96;76.75;98389.78;2113562;82;21119;-86
2020/12/03 12:16:24;;;;;;;47.35;25.12;;;;;;;0.98;76.56;98363.39;2117881;82;21299;-77
2020/12/03 12:19:29;;;;;;;44.05;27.60;;;;;;;0.99;76.63;98379.68;2112928;82;21554;-84
2020/12/03 12:22:30;;;;;;;41.85;23.32;;;;;;;1.01;76.78;98372.19;2132661;82;21294;-85
2020/12/03 12:25:32;;;;;;;45.65;25.95;;;;;;;1.06;76.58;98373.08;2160366;82;21258;-84
2020/12/03 12:28:33;;;;;;;43.33;24.55;;;;;;;1.08;76.53;98364.26;2131858;82;21130;-81
2020/12/03 12:31:35;;;;;;;43.38;24.75;;;;;;;1.06;76.39;98357.61;2137264;82;21164;-82
2020/12/03 12:34:36;;;;;;;43.65;23.47;;;;;;;1.07;76.52;98348.45;2142044;82;21117;-81
2020/12/03 12:37:37;;;;;;;41.85;21.77;;;;;;;1.09;76.98;98348.31;2152683;82;21105;-82
2020/12/03 12:40:39;;;;;;;46.15;25.37;;;;;;;1.03;76.09;98350.14;2141920;82;21291;-85
2020/12/03 12:43:40;;;;;;;45.85;24.52;;;;;;;0.96;76.74;98335.64;2142536;82;21298;-84
2020/12/03 12:46:42;;;;;;;49.23;28.27;;;;;;;0.93;76.70;98344.93;2140180;82;21172;-83
2020/12/03 12:49:43;;;;;;;43.98;22.85;;;;;;;0.90;77.15;98332.28;2145935;81;21156;-82
2020/12/03 12:52:45;;;;;;;39.10;23.65;;;;;;;0.90;76.80;98332.75;2142643;81;21249;-84
2020/12/03 12:55:46;;;;;;;47.78;27.52;;;;;;;0.86;76.74;98328.33;2144559;81;21184;-83
2020/12/03 12:58:48;;;;;;;48.33;24.45;;;;;;;0.81;77.39;98322.73;2161940;82;21572;-80
2020/12/03 13:01:49;;;;;;;49.40;28.10;;;;;;;0.81;77.24;98324.02;2151377;82;21552;-82
2020/12/03 13:04:50;;;;;;;38.58;22.02;;;;;;;0.78;77.30;98326.39;2135380;82;21315;-82
2020/12/03 13:07:55;;;;;;;43.80;23.18;;;;;;;0.78;77.34;98325.57;2152603;81;21212;-82
2020/12/03 13:10:57;;;;;;;47.03;26.07;;;;;;;0.74;77.04;98319.87;2165517;82;21117;-81
2020/12/03 13:13:58;;;;;;;39.35;23.50;;;;;;;0.76;77.40;98334.72;2149823;82;21293;-82
2020/12/03 13:17:00;;;;;;;49.23;26.55;;;;;;;0.80;77.15;98334.80;2141448;82;21251;-82
2020/12/03 13:20:01;;;;;;;43.17;24.70;;;;;;;0.82;77.41;98339.83;2133410;82;21355;-80
2020/12/03 13:23:03;;;;;;;51.05;28.15;;;;;;;0.81;77.03;98337.72;2141819;82;21287;-79
2020/12/03 13:26:04;;;;;;;47.08;24.47;;;;;;;0.78;77.43;98330.25;2156805;81;21105;-81
2020/12/03 13:29:06;;;;;;;47.10;26.30;;;;;;;0.76;77.24;98324.89;2139431;81;21322;-80
2020/12/03 13:32:08;;;;;;;56.50;29.02;;;;;;;0.68;77.21;98312.63;2134779;82;21232;-85
2020/12/03 13:35:09;;;;;;;51.55;26.87;;;;;;;0.70;77.71;98302.19;2145300;82;21303;-83
2020/12/03 13:38:12;;;;;;;53.13;28.85;;;;;;;0.67;77.33;98287.00;2147131;82;21152;-83
2020/12/03 13:41:15;;;;;;;47.93;25.30;;;;;;;0.64;77.58;98297.09;2141323;82;21525;-86
2020/12/03 13:44:19;;;;;;;51.88;28.15;;;;;;;0.62;77.66;98286.08;2108163;82;21174;-81
2020/12/03 13:47:21;;;;;;;51.35;27.10;;;;;;;0.55;77.98;98293.52;2128820;82;21135;-82
2020/12/03 13:50:22;;;;;;;48.08;26.52;;;;;;;0.54;78.20;98271.72;2116245;82;21259;-82
2020/12/03 13:53:25;;;;;;;54.75;28.27;;;;;;;0.49;78.21;98258.42;2150457;82;21251;-81
2020/12/03 13:56:27;;;;;;;47.00;24.67;;;;;;;0.42;78.21;98254.23;2122116;82;21189;-80
2020/12/03 13:59:33;;;;;;;44.10;22.95;;;;;;;0.42;78.33;98244.41;2113182;82;21139;-81
2020/12/03 14:02:35;;;;;;;41.85;20.10;;;;;;;0.43;78.51;98242.98;2138770;82;21148;-81